WetterOnline ( https://www.wetteronline.de )

Wetter aktuell Langen Brütz

Aktuelles Wetter: Schwerin (68m)

6-stündlich | Neueste Meldungen
Ortszeit Temperatur Wetter
Fr, 23.10. 8:00 9.1° C fast wolkenlos
Fr, 23.10. 2:00 11.2° C wolkenlos
Do, 22.10. 20:00 15.3° C bewölkt
Do, 22.10. 14:00 17.5° C leicht bewölkt
Do, 22.10. 8:00 13.1° C wolkenlos
Do, 22.10. 2:00 15.4° C leicht bewölkt
Mi, 21.10. 20:00 14.0° C bedeckt
Mi, 21.10. 14:00 12.6° C leichter Regen
Ortszeit Temperatur Wetter
Fr, 23.10. 9:30 10.4° C bewölkt
Fr, 23.10. 9:20 10.4° C bewölkt
Fr, 23.10. 9:10 10.3° C bewölkt
Fr, 23.10. 9:00 10.0° C bewölkt
Fr, 23.10. 8:50 10.0° C bewölkt
Fr, 23.10. 8:40 9.9° C bedeckt
Fr, 23.10. 8:30 9.7° C bewölkt
Fr, 23.10. 8:00 9.1° C fast wolkenlos
Fr, 23.10. 7:30 9.5° C fast wolkenlos
Fr, 23.10. 7:00 9.7° C wolkenlos
Fr, 23.10. 6:30 9.8° C fast wolkenlos
Ortszeit Relative Feuchte Sichtweite
Fr, 23.10. 8:00 99% 5.0 km
Fr, 23.10. 2:00 93% 40 km
Do, 22.10. 20:00 77% 50 km
Do, 22.10. 14:00 70% 55 km
Do, 22.10. 8:00 85% >70 km
Do, 22.10. 2:00 72% 50 km
Mi, 21.10. 20:00 76% 50 km
Mi, 21.10. 14:00 89% 18 km
Ortszeit Relative Feuchte Sichtweite
Fr, 23.10. 9:30 97% 6 km
Fr, 23.10. 9:20 97% -
Fr, 23.10. 9:10 98% -
Fr, 23.10. 9:00 99% 5.0 km
Fr, 23.10. 8:50 99% -
Fr, 23.10. 8:40 99% -
Fr, 23.10. 8:30 99% 5.0 km
Fr, 23.10. 8:00 99% 5.0 km
Fr, 23.10. 7:30 98% 7 km
Fr, 23.10. 7:00 97% 8 km
Fr, 23.10. 6:30 97% 10 km
Ortszeit Niederschlagsmenge Niederschlagsart
Fr, 23.10. 8:00 1 l/m2 in 12 Std. -
Fr, 23.10. 2:00 1 l/m2 in 6 Std. Regen
Do, 22.10. 20:00 0.0 l/m2 in 12 Std. -
Do, 22.10. 14:00 0.0 l/m2 in 6 Std. -
Do, 22.10. 8:00 0.1 l/m2 in 12 Std. Regen
Do, 22.10. 2:00 0.0 l/m2 in 6 Std. -
Mi, 21.10. 20:00 0.8 l/m2 in 12 Std. Regen
Mi, 21.10. 14:00 0.6 l/m2 in 6 Std. Regen
Ortszeit Niederschlagsmenge Niederschlagsart
Fr, 23.10. 9:30 0.1 l/m2 in 1 Std. -
Fr, 23.10. 9:20 keine Meldung -
Fr, 23.10. 9:10 keine Meldung -
Fr, 23.10. 9:00 0.0 l/m2 in 1 Std. -
Fr, 23.10. 8:50 keine Meldung -
Fr, 23.10. 8:40 keine Meldung -
Fr, 23.10. 8:30 0.0 l/m2 in 1 Std. -
Fr, 23.10. 8:00 0.1 l/m2 in 1 Std. -
Fr, 23.10. 7:30 0.1 l/m2 in 1 Std. -
Fr, 23.10. 7:00 0.0 l/m2 in 1 Std. -
Fr, 23.10. 6:30 0.0 l/m2 in 1 Std. -
Ortszeit Stärke Spitze Richtung
km/h Bft. km/h Grad Sektor
Fr, 23.10. 8:00 11 2 25 210° SW
Fr, 23.10. 2:00 14 3 29 220° SW
Do, 22.10. 20:00 14 3 43 200° S
Do, 22.10. 14:00 25 4 43 220° SW
Do, 22.10. 8:00 18 3 65 220° SW
Do, 22.10. 2:00 25 4 47 210° SW
Mi, 21.10. 20:00 13 3 33 190° S
Mi, 21.10. 14:00 11 2 25 180° S
Ortszeit Stärke Spitze Richtung
km/h Bft. km/h Grad Sektor
Fr, 23.10. 9:30 14 3 22 230° SW
Fr, 23.10. 9:20 14 3 - 230° SW
Fr, 23.10. 9:10 14 3 - 230° SW
Fr, 23.10. 9:00 13 3 26 220° SW
Fr, 23.10. 8:50 13 3 - 220° SW
Fr, 23.10. 8:40 14 3 - 220° SW
Fr, 23.10. 8:30 15 3 20 220° SW
Fr, 23.10. 8:00 11 2 18 210° SW
Fr, 23.10. 7:30 13 3 19 230° SW
Fr, 23.10. 7:00 13 3 20 210° SW
Fr, 23.10. 6:30 13 3 20 230° SW
Ortszeit Untergrenze Bedeckung Gattung
total tief tief mittel hoch
Fr, 23.10. 8:00 <30 m 0/8 0/8 - - -
Fr, 23.10. 2:00 - 0/8 0/8 - - -
Do, 22.10. 20:00 1500 m 8/8 7/8 - - -
Do, 22.10. 14:00 750 m 4/8 4/8 - - -
Do, 22.10. 8:00 - 0/8 0/8 - - -
Do, 22.10. 2:00 1500 m 4/8 4/8 - - -
Mi, 21.10. 20:00 1800 m 8/8 8/8 - - -
Mi, 21.10. 14:00 930 m 8/8 8/8 - - -
Ortszeit Bedeckungsgrad in Achtel und Wolkenuntergrenze
Fr, 23.10. 9:30 7(120m)
Fr, 23.10. 9:20 7(120m)
Fr, 23.10. 9:10 7(120m)
Fr, 23.10. 9:00 7(120m)
Fr, 23.10. 8:50 7(120m)
Fr, 23.10. 8:40 8(120m)
Fr, 23.10. 8:30 1(<30m) 7(150m)
Fr, 23.10. 8:00 2(<30m) 3(180m)
Fr, 23.10. 7:30 1(8100m)
Fr, 23.10. 7:00 keine Wolken
Fr, 23.10. 6:30 1(8100m)
Ortszeit Luftdruck NN (hPa) Tendenz (hPa in 3 Std.)
Fr, 23.10. 8:00 1011 + 0,3
Fr, 23.10. 2:00 1011 + 0,6
Do, 22.10. 20:00 1009 - 0,6
Do, 22.10. 14:00 1010 - 0,3
Do, 22.10. 8:00 1008 + 2,4
Do, 22.10. 2:00 1002 + 0,3
Mi, 21.10. 20:00 1003 - 1,1
Mi, 21.10. 14:00 1006 - 1,6
Ortszeit Luftdruck NN (hPa) Tendenz (hPa in 3 Std.)
Fr, 23.10. 9:30 1011 + 0,7
Fr, 23.10. 9:20 1011 keine Meldung
Fr, 23.10. 9:10 1011 keine Meldung
Fr, 23.10. 9:00 1011 + 0,6
Fr, 23.10. 8:50 1011 keine Meldung
Fr, 23.10. 8:40 1011 keine Meldung
Fr, 23.10. 8:30 1011 + 0,6
Fr, 23.10. 8:00 1011 + 0,3
Fr, 23.10. 7:30 1011 + 0,2
Fr, 23.10. 7:00 1011 + 0,2
Fr, 23.10. 6:30 1011 - 0,1
Ortszeit Schneehöhe (cm)
Fr, 23.10. 8:00 0
Fr, 23.10. 2:00 0
Do, 22.10. 20:00 0
Do, 22.10. 14:00 0
Do, 22.10. 8:00 0
Do, 22.10. 2:00 0
Mi, 21.10. 20:00 0
Mi, 21.10. 14:00 0
Ortszeit Schneehöhe (cm)
Fr, 23.10. 9:30 0
Fr, 23.10. 9:20 0
Fr, 23.10. 9:10 0
Fr, 23.10. 9:00 0
Fr, 23.10. 8:50 0
Fr, 23.10. 8:40 0
Fr, 23.10. 8:30 0
Fr, 23.10. 8:00 0
Fr, 23.10. 7:30 0
Fr, 23.10. 7:00 0
Fr, 23.10. 6:30 0
Link zu dieser Seite / Seite empfehlen

Das Wetter in ...